Hoisington, Kansas
Current Conditions -  °F | °C
As of 3:15 PM on Monday 22 Dec 2014 (Local Time) from KGBD Reporting Station
Scattered Clouds Scattered Clouds  
Wind Chill: 54°   Ceiling: Unl
Heat Index: 54°   Visibility: 10mi
Dew Point: 30°   Wind: 18mph
Humidity: 41%   Direction: 310°NW
Pressure: 29.54"   Gusts: 22mph
Location:  38.52°N, 98.78°W
Report Text: KGBD 222115Z AUTO 31016G19KT 10SM SCT070 12/M01 A2954 RMK AO1
Loading
Personal Weather Stations






























Interactive Weather Map New forecast layout! Learn more

10-Day Weather Forecast

Advertisements
Track Severe Weather on mobile